Time;durP1;ratioP1;P1;durP2;ratioP2;P2;SDS_P1;SDS_P2;PMS_P1;PMS_P2;Temp;Humidity;BMP_temperature;BMP_pressure;BME280_temperature;BME280_humidity;BME280_pressure;Samples;Min_cycle;Max_cycle;Signal;HPM_P1;HPM_P2
2024/01/18 00:02:49;;;;;;;17.55;7.65;;;;;;;0.08;100.00;98853.72;6292914;28;20056;-78
2024/01/18 00:05:51;;;;;;;17.83;7.88;;;;;;;-0.20;100.00;98859.19;6303308;28;20056;-78
2024/01/18 00:08:52;;;;;;;26.02;8.18;;;;;;;-0.02;100.00;98870.50;6303522;28;20391;-78
2024/01/18 00:11:55;;;;;;;19.05;8.30;;;;;;;0.01;100.00;98878.13;6303773;28;20055;-76
2024/01/18 00:14:56;;;;;;;23.67;9.23;;;;;;;-0.13;100.00;98872.69;6302956;28;20055;-78
2024/01/18 00:17:57;;;;;;;21.00;8.60;;;;;;;0.02;100.00;98881.56;6302863;28;20433;-78
2024/01/18 00:20:59;;;;;;;26.35;8.25;;;;;;;0.08;100.00;98886.47;6303238;28;20127;-78
2024/01/18 00:24:00;;;;;;;18.17;7.22;;;;;;;0.15;100.00;98888.75;6303026;28;20045;-78
2024/01/18 00:27:03;;;;;;;16.63;8.13;;;;;;;0.16;100.00;98892.16;6302930;28;20056;-78
2024/01/18 00:30:05;;;;;;;18.00;8.35;;;;;;;0.18;100.00;98888.63;6303403;28;20059;-78
2024/01/18 00:33:07;;;;;;;15.20;8.10;;;;;;;-0.10;100.00;98894.03;6303074;28;20048;-77
2024/01/18 00:36:08;;;;;;;15.68;7.85;;;;;;;-0.06;100.00;98899.94;6302600;28;20044;-78
2024/01/18 00:39:10;;;;;;;19.38;8.07;;;;;;;-0.03;100.00;98910.16;6303321;28;20448;-78
2024/01/18 00:42:13;;;;;;;16.42;8.05;;;;;;;0.06;100.00;98908.94;6302603;28;20348;-77
2024/01/18 00:45:14;;;;;;;16.52;8.07;;;;;;;0.07;100.00;98914.03;6302744;28;20460;-78
2024/01/18 00:48:15;;;;;;;22.65;9.48;;;;;;;0.08;100.00;98913.13;6302335;28;20055;-78
2024/01/18 00:51:17;;;;;;;17.92;8.48;;;;;;;0.05;100.00;98922.75;6303064;28;20190;-78
2024/01/18 00:54:18;;;;;;;15.20;8.52;;;;;;;-0.01;100.00;98926.41;6302515;28;20068;-77
2024/01/18 00:57:21;;;;;;;19.55;9.18;;;;;;;-0.13;100.00;98926.91;6302557;28;20044;-77
2024/01/18 01:00:22;;;;;;;17.63;9.38;;;;;;;-0.09;100.00;98937.06;6302632;28;20622;-76
2024/01/18 01:03:23;;;;;;;16.27;8.10;;;;;;;-0.05;100.00;98942.91;6301459;28;20044;-76
2024/01/18 01:06:25;;;;;;;17.55;7.82;;;;;;;-0.05;100.00;98945.50;6301764;28;20360;-76
2024/01/18 01:09:26;;;;;;;18.00;8.15;;;;;;;-0.12;100.00;98939.75;6302144;28;20048;-76
2024/01/18 01:12:29;;;;;;;18.67;7.90;;;;;;;-0.34;100.00;98952.63;6302042;28;20395;-76
2024/01/18 01:15:30;;;;;;;18.98;8.73;;;;;;;-0.32;100.00;98952.56;6300797;28;20052;-76
2024/01/18 01:18:31;;;;;;;20.92;8.90;;;;;;;-0.33;100.00;98963.78;6302175;28;20045;-76
2024/01/18 01:21:32;;;;;;;20.95;9.07;;;;;;;-0.24;100.00;98962.59;6301874;28;20048;-76
2024/01/18 01:24:38;;;;;;;17.88;8.90;;;;;;;-0.31;100.00;98975.75;6302018;28;20052;-76
2024/01/18 01:27:40;;;;;;;18.83;8.90;;;;;;;-0.32;100.00;98968.03;6301453;28;20159;-76
2024/01/18 01:30:42;;;;;;;24.80;9.27;;;;;;;-0.50;100.00;98969.56;6302056;28;20064;-76
2024/01/18 01:33:43;;;;;;;20.38;8.32;;;;;;;-0.46;100.00;98972.88;6301562;28;20057;-77
2024/01/18 01:36:44;;;;;;;22.17;8.77;;;;;;;-0.44;100.00;98971.94;6301043;28;20080;-76
2024/01/18 01:39:46;;;;;;;19.27;8.15;;;;;;;-0.35;100.00;98965.59;6302063;28;20048;-76
2024/01/18 01:42:49;;;;;;;26.50;8.45;;;;;;;-0.31;100.00;98977.50;6301126;28;20189;-76
2024/01/18 01:45:50;;;;;;;25.23;8.95;;;;;;;-0.45;100.00;98977.16;6300951;28;20048;-77
2024/01/18 01:48:53;;;;;;;13.55;7.85;;;;;;;-0.51;100.00;98988.53;6301221;28;20063;-76
2024/01/18 01:51:55;;;;;;;25.60;9.25;;;;;;;-0.48;100.00;98991.00;6301443;28;20049;-76
2024/01/18 01:54:57;;;;;;;18.38;9.27;;;;;;;-0.52;100.00;98987.69;6301010;28;20060;-76
2024/01/18 01:58:00;;;;;;;17.88;8.32;;;;;;;-0.40;100.00;98994.16;6300637;28;20331;-76
2024/01/18 02:01:02;;;;;;;21.92;9.73;;;;;;;-0.32;100.00;98989.56;6300737;28;20049;-76
2024/01/18 02:04:03;;;;;;;24.05;9.13;;;;;;;-0.22;100.00;99002.97;6300962;28;20060;-78
2024/01/18 02:07:05;;;;;;;19.63;8.63;;;;;;;-0.21;100.00;98999.47;6300179;28;20449;-77
2024/01/18 02:10:08;;;;;;;17.55;8.07;;;;;;;-0.20;100.00;99008.06;6301136;28;20048;-77
2024/01/18 02:13:11;;;;;;;21.48;8.57;;;;;;;-0.21;100.00;99009.78;6300638;28;20048;-77
2024/01/18 02:16:13;;;;;;;26.17;9.60;;;;;;;-0.16;100.00;99015.63;6300197;28;20053;-77
2024/01/18 02:19:14;;;;;;;17.88;9.25;;;;;;;-0.20;100.00;99020.97;6300884;28;20135;-77
2024/01/18 02:22:17;;;;;;;16.50;8.73;;;;;;;-0.40;100.00;99027.69;6300569;28;20059;-77
2024/01/18 02:25:22;;;;;;;25.30;9.68;;;;;;;-0.45;100.00;99027.03;6300595;28;20365;-77
2024/01/18 02:28:23;;;;;;;23.70;9.43;;;;;;;-0.46;100.00;99037.38;6300047;28;20051;-77
2024/01/18 02:31:25;;;;;;;14.73;8.43;;;;;;;-0.46;100.00;99034.81;6300608;28;20044;-77
2024/01/18 02:34:26;;;;;;;17.10;8.38;;;;;;;-0.42;100.00;99034.63;6300215;28;20052;-77
2024/01/18 02:37:28;;;;;;;21.48;9.00;;;;;;;-0.44;100.00;99039.03;6299870;28;20352;-77
2024/01/18 02:40:31;;;;;;;28.88;9.10;;;;;;;-0.45;100.00;99037.34;6300404;28;20051;-77
2024/01/18 02:43:32;;;;;;;18.67;8.93;;;;;;;-0.44;100.00;99038.19;6300266;28;20135;-77
2024/01/18 02:46:34;;;;;;;29.23;10.98;;;;;;;-0.44;100.00;99040.78;6299773;28;20059;-77
2024/01/18 02:49:37;;;;;;;19.65;9.43;;;;;;;-0.43;100.00;99032.97;6300411;28;20055;-77
2024/01/18 02:52:39;;;;;;;21.30;10.25;;;;;;;-0.40;100.00;99027.69;6299998;28;20051;-77
2024/01/18 02:55:41;;;;;;;24.27;9.48;;;;;;;-0.42;100.00;99036.38;6299687;28;20056;-77
2024/01/18 02:58:43;;;;;;;20.02;8.10;;;;;;;-0.41;100.00;99032.91;6300292;28;20048;-77
2024/01/18 03:01:44;;;;;;;20.42;9.20;;;;;;;-0.42;100.00;99031.22;6299210;28;20353;-77
2024/01/18 03:04:45;;;;;;;23.45;9.82;;;;;;;-0.42;100.00;99037.22;6299758;28;20055;-77
2024/01/18 03:07:47;;;;;;;19.83;9.13;;;;;;;-0.45;100.00;99042.50;6298892;28;20080;-77
2024/01/18 03:10:49;;;;;;;22.55;8.85;;;;;;;-0.44;100.00;99040.78;6299988;28;20453;-77
2024/01/18 03:13:51;;;;;;;19.70;8.63;;;;;;;-0.45;100.00;99044.25;6299743;28;20048;-77
2024/01/18 03:16:52;;;;;;;19.20;9.65;;;;;;;-0.49;100.00;99040.94;6299391;28;20578;-78
2024/01/18 03:19:53;;;;;;;18.80;9.27;;;;;;;-0.48;100.00;99040.03;6296709;28;20052;-77
2024/01/18 03:22:55;;;;;;;22.50;9.15;;;;;;;-0.51;100.00;99042.72;6299566;28;20055;-77
2024/01/18 03:25:58;;;;;;;20.35;9.23;;;;;;;-0.52;100.00;99044.44;6299308;28;20045;-77
2024/01/18 03:28:59;;;;;;;26.45;11.68;;;;;;;-0.48;100.00;99049.50;6299669;28;20254;-77
2024/01/18 03:32:00;;;;;;;27.40;10.95;;;;;;;-0.51;100.00;99042.72;6299436;28;20353;-78
2024/01/18 03:35:02;;;;;;;19.58;10.30;;;;;;;-0.51;100.00;99056.44;6299207;28;20051;-78
2024/01/18 03:38:03;;;;;;;18.08;8.30;;;;;;;-0.44;100.00;99051.09;6301715;28;20049;-78
2024/01/18 03:41:06;;;;;;;20.25;9.70;;;;;;;-0.37;100.00;99061.13;6304250;28;20052;-76
2024/01/18 03:44:07;;;;;;;21.67;10.32;;;;;;;-0.37;100.00;99048.22;6304383;28;20059;-76
2024/01/18 03:47:09;;;;;;;26.88;11.18;;;;;;;-0.40;100.00;99052.66;6303578;28;20063;-78
2024/01/18 03:50:10;;;;;;;18.92;9.30;;;;;;;-0.45;100.00;99052.00;6303938;28;20045;-78
2024/01/18 03:53:12;;;;;;;21.92;11.25;;;;;;;-0.51;100.00;99056.44;6303896;28;20348;-78
2024/01/18 03:56:14;;;;;;;24.65;11.18;;;;;;;-0.54;100.00;99053.16;6303929;28;20060;-76
2024/01/18 03:59:16;;;;;;;24.63;11.65;;;;;;;-0.52;100.00;99049.63;6303945;28;20421;-77
2024/01/18 04:02:17;;;;;;;21.88;9.65;;;;;;;-0.51;100.00;99053.03;6303736;28;20052;-77
2024/01/18 04:05:18;;;;;;;31.63;11.50;;;;;;;-0.49;100.00;99058.16;6303852;28;20060;-76
2024/01/18 04:08:20;;;;;;;26.38;10.65;;;;;;;-0.51;100.00;99059.03;6302951;28;20052;-76
2024/01/18 04:11:22;;;;;;;23.05;9.27;;;;;;;-0.53;100.00;99066.00;6303787;28;20060;-77
2024/01/18 04:14:24;;;;;;;25.60;10.23;;;;;;;-0.57;100.00;99061.84;6303435;28;20048;-76
2024/01/18 04:17:25;;;;;;;22.40;9.75;;;;;;;-0.60;100.00;99056.78;6303148;28;20055;-77
2024/01/18 04:20:28;;;;;;;21.02;10.07;;;;;;;-0.62;100.00;99071.47;6303511;28;20433;-76
2024/01/18 04:23:30;;;;;;;22.45;10.68;;;;;;;-0.64;100.00;99067.25;6303386;28;20048;-77
2024/01/18 04:26:34;;;;;;;20.65;10.27;;;;;;;-0.70;100.00;99067.47;6302947;28;20345;-77
2024/01/18 04:29:35;;;;;;;24.25;10.70;;;;;;;-0.69;100.00;99075.16;6303419;28;20079;-77
2024/01/18 04:32:36;;;;;;;23.60;10.02;;;;;;;-0.70;100.00;99085.53;6303033;28;20310;-77
2024/01/18 04:35:38;;;;;;;21.73;10.48;;;;;;;-0.72;100.00;99084.75;6302891;28;20456;-77
2024/01/18 04:38:39;;;;;;;22.92;11.20;;;;;;;-0.79;100.00;99094.41;6302993;28;20057;-76
2024/01/18 04:41:42;;;;;;;24.55;10.90;;;;;;;-0.79;100.00;99092.69;6303529;28;20052;-77
2024/01/18 04:44:43;;;;;;;25.98;10.90;;;;;;;-0.75;100.00;99090.84;6303118;28;20360;-76
2024/01/18 04:47:45;;;;;;;23.30;10.60;;;;;;;-0.81;100.00;99094.47;6303238;28;20135;-76
2024/01/18 04:50:46;;;;;;;22.65;10.32;;;;;;;-0.95;100.00;99095.81;6303355;28;20048;-76
2024/01/18 04:53:47;;;;;;;23.55;10.77;;;;;;;-0.99;100.00;99102.00;6303159;28;20361;-76
2024/01/18 04:56:50;;;;;;;24.80;10.77;;;;;;;-0.96;100.00;99094.13;6302630;28;20044;-76
2024/01/18 04:59:51;;;;;;;26.50;11.88;;;;;;;-0.94;100.00;99106.09;6302549;28;20067;-76
2024/01/18 05:02:53;;;;;;;24.08;10.20;;;;;;;-0.92;100.00;99106.88;6302145;28;20404;-77
2024/01/18 05:05:56;;;;;;;19.70;9.50;;;;;;;-0.86;100.00;99106.69;6301907;28;20055;-76
2024/01/18 05:08:57;;;;;;;28.05;12.20;;;;;;;-0.85;100.00;99107.53;6301829;28;20330;-77
2024/01/18 05:12:00;;;;;;;24.65;10.13;;;;;;;-0.83;100.00;99103.16;6301974;28;20053;-77
2024/01/18 05:15:01;;;;;;;31.73;11.48;;;;;;;-0.84;100.00;99104.88;6302146;28;20048;-76
2024/01/18 05:18:03;;;;;;;20.15;11.00;;;;;;;-0.84;100.00;99114.38;6301593;28;20041;-78
2024/01/18 05:21:04;;;;;;;22.27;10.32;;;;;;;-0.92;100.00;99119.75;6301964;28;20051;-78
2024/01/18 05:24:07;;;;;;;29.60;11.60;;;;;;;-0.93;100.00;99107.78;6301900;28;20059;-78
2024/01/18 05:27:09;;;;;;;23.38;11.32;;;;;;;-0.99;100.00;99115.72;6301393;28;20052;-78
2024/01/18 05:30:12;;;;;;;28.45;11.25;;;;;;;-1.04;100.00;99115.88;6301909;28;20456;-78
2024/01/18 05:33:14;;;;;;;23.67;10.65;;;;;;;-1.01;100.00;99125.22;6301379;28;20060;-77
2024/01/18 05:36:15;;;;;;;22.17;11.57;;;;;;;-1.11;100.00;99121.25;6300767;28;20463;-78
2024/01/18 05:39:16;;;;;;;26.63;10.38;;;;;;;-1.13;100.00;99125.63;6301671;28;20045;-77
2024/01/18 05:42:20;;;;;;;34.45;11.98;;;;;;;-1.14;100.00;99135.06;6300906;28;20341;-78
2024/01/18 05:45:21;;;;;;;21.65;10.80;;;;;;;-1.16;100.00;99147.19;6301490;28;20135;-78
2024/01/18 05:48:22;;;;;;;30.35;12.30;;;;;;;-1.22;100.00;99154.28;6301120;28;20171;-78
2024/01/18 05:51:24;;;;;;;20.50;10.38;;;;;;;-1.20;100.00;99158.47;6301253;28;20056;-78
2024/01/18 05:54:25;;;;;;;27.30;10.95;;;;;;;-1.21;100.00;99156.78;6301530;28;20052;-78
2024/01/18 05:57:28;;;;;;;24.30;10.32;;;;;;;-1.20;100.00;99165.38;6300866;28;20069;-78
2024/01/18 06:00:29;;;;;;;27.90;11.65;;;;;;;-1.30;100.00;99163.06;6300408;28;20048;-78
2024/01/18 06:03:30;;;;;;;24.10;11.52;;;;;;;-1.32;100.00;99164.00;6300495;28;20127;-78
2024/01/18 06:06:32;;;;;;;18.85;10.50;;;;;;;-1.28;100.00;99163.03;6300481;28;20048;-78
2024/01/18 06:09:33;;;;;;;21.63;10.60;;;;;;;-1.32;100.00;99170.03;6301211;28;20040;-78
2024/01/18 06:12:36;;;;;;;23.75;10.70;;;;;;;-1.34;100.00;99187.25;6300472;28;20052;-78
2024/01/18 06:15:39;;;;;;;26.30;11.07;;;;;;;-1.34;100.00;99178.69;6300549;28;20075;-78
2024/01/18 06:18:42;;;;;;;23.77;11.05;;;;;;;-1.38;100.00;99182.22;6300792;28;20048;-78
2024/01/18 06:21:43;;;;;;;31.55;11.15;;;;;;;-1.36;100.00;99186.47;6300828;28;20060;-78
2024/01/18 06:24:45;;;;;;;20.08;9.95;;;;;;;-1.34;100.00;99178.69;6300444;28;20056;-77
2024/01/18 06:27:48;;;;;;;26.13;11.13;;;;;;;-1.38;100.00;99183.06;6300095;28;20139;-78
2024/01/18 06:30:49;;;;;;;20.92;9.98;;;;;;;-1.40;100.00;99182.28;6300211;28;20135;-78
2024/01/18 06:33:50;;;;;;;23.58;11.20;;;;;;;-1.48;100.00;99193.72;6300205;28;20056;-78
2024/01/18 06:36:52;;;;;;;24.02;10.82;;;;;;;-1.48;100.00;99196.28;6299907;28;20048;-78
2024/01/18 06:39:54;;;;;;;26.83;11.40;;;;;;;-1.49;100.00;99210.91;6300329;28;20171;-78
2024/01/18 06:42:56;;;;;;;23.25;10.40;;;;;;;-1.51;100.00;99215.22;6300235;28;20052;-78
2024/01/18 06:45:58;;;;;;;20.83;10.93;;;;;;;-1.51;100.00;99220.38;6299668;28;20055;-78
2024/01/18 06:49:00;;;;;;;28.17;12.98;;;;;;;-1.54;100.00;99215.34;6300387;28;20051;-78
2024/01/18 06:52:02;;;;;;;32.28;12.43;;;;;;;-1.57;100.00;99228.28;6299938;28;20080;-78
2024/01/18 06:55:04;;;;;;;24.88;11.75;;;;;;;-1.58;100.00;99236.91;6299882;28;20346;-78
2024/01/18 06:58:07;;;;;;;35.88;13.70;;;;;;;-1.58;100.00;99231.78;6299780;28;20056;-78
2024/01/18 07:01:09;;;;;;;30.05;13.02;;;;;;;-1.61;100.00;99231.84;6299872;28;20048;-79
2024/01/18 07:04:11;;;;;;;21.70;11.75;;;;;;;-1.62;100.00;99232.75;6299010;28;20062;-79
2024/01/18 07:07:12;;;;;;;26.73;12.93;;;;;;;-1.68;100.00;99249.22;6295540;28;20345;-78
2024/01/18 07:10:14;;;;;;;24.00;11.50;;;;;;;-1.74;100.00;99258.81;6290169;28;20053;-78
2024/01/18 07:13:16;;;;;;;31.42;11.95;;;;;;;-1.76;100.00;99258.03;6296108;28;20119;-79
2024/01/18 07:16:18;;;;;;;25.27;12.10;;;;;;;-1.73;100.00;99261.34;6294399;28;20056;-78
2024/01/18 07:19:19;;;;;;;27.05;11.98;;;;;;;-1.75;100.00;99267.44;6300641;28;20047;-78
2024/01/18 07:22:20;;;;;;;27.90;12.57;;;;;;;-1.81;100.00;99277.03;6304668;28;20356;-78
2024/01/18 07:25:22;;;;;;;25.77;11.40;;;;;;;-1.90;100.00;99273.84;6304242;28;20048;-78
2024/01/18 07:28:25;;;;;;;37.00;12.10;;;;;;;-2.06;100.00;99278.53;6304256;28;20052;-78
2024/01/18 07:31:26;;;;;;;33.15;11.07;;;;;;;-2.07;100.00;99266.56;6304549;28;20044;-81
2024/01/18 07:34:27;;;;;;;23.50;11.20;;;;;;;-2.03;100.00;99282.78;6304374;28;20056;-78
2024/01/18 07:37:29;;;;;;;44.63;14.70;;;;;;;-2.01;100.00;99279.25;6304033;28;20135;-77
2024/01/18 07:40:30;;;;;;;28.40;14.35;;;;;;;-1.95;100.00;99284.28;6304368;28;20052;-79
2024/01/18 07:43:33;;;;;;;34.50;12.98;;;;;;;-1.92;100.00;99296.19;6304221;28;20051;-79
2024/01/18 07:46:34;;;;;;;30.52;13.25;;;;;;;-1.94;100.00;99296.25;6303751;28;20052;-78
2024/01/18 07:49:36;;;;;;;23.23;12.02;;;;;;;-1.87;100.00;99300.34;6304085;28;20395;-78
2024/01/18 07:52:38;;;;;;;29.67;13.30;;;;;;;-1.89;100.00;99303.84;6303940;28;20052;-79
2024/01/18 07:55:39;;;;;;;30.13;14.00;;;;;;;-2.04;100.00;99302.53;6303708;28;20052;-79
2024/01/18 07:58:43;;;;;;;27.05;12.52;;;;;;;-2.07;100.00;99306.00;6304062;28;20052;-79
2024/01/18 08:01:45;;;;;;;22.95;12.38;;;;;;;-2.01;100.00;99309.31;6302447;28;20048;-79
2024/01/18 08:04:46;;;;;;;30.35;13.63;;;;;;;-1.99;100.00;99308.41;6303444;28;20065;-77
2024/01/18 08:07:48;;;;;;;32.03;14.07;;;;;;;-2.01;100.00;99312.72;6302974;28;20059;-78
2024/01/18 08:10:49;;;;;;;24.67;12.32;;;;;;;-1.96;100.00;99322.91;6297278;28;20353;-76
2024/01/18 08:13:52;;;;;;;25.02;12.40;;;;;;;-1.98;100.00;99324.69;6295927;28;20128;-76
2024/01/18 08:16:54;;;;;;;26.38;12.38;;;;;;;-1.97;100.00;99327.19;6291709;28;20583;-76
2024/01/18 08:19:56;;;;;;;29.25;13.27;;;;;;;-1.93;100.00;99333.13;6299542;28;20066;-75
2024/01/18 08:22:57;;;;;;;22.20;11.57;;;;;;;-1.87;100.00;99330.38;6297917;28;20178;-75
2024/01/18 08:25:59;;;;;;;33.05;16.13;;;;;;;-1.90;100.00;99326.19;6302678;28;20441;-76
2024/01/18 08:29:02;;;;;;;27.83;12.98;;;;;;;-1.85;100.00;99336.34;6300159;28;20044;-77
2024/01/18 08:32:04;;;;;;;28.02;12.02;;;;;;;-1.83;100.00;99330.28;6294064;28;20044;-76
2024/01/18 08:35:07;;;;;;;31.73;12.65;;;;;;;-1.81;100.00;99345.69;6302114;28;20060;-77
2024/01/18 08:38:09;;;;;;;32.25;12.27;;;;;;;-1.76;100.00;99356.72;6299206;28;20084;-77
2024/01/18 08:41:11;;;;;;;30.20;11.55;;;;;;;-1.71;100.00;99356.59;6302772;28;20044;-77
2024/01/18 08:44:13;;;;;;;40.78;14.15;;;;;;;-1.69;100.00;99360.81;6301896;28;20602;-78
2024/01/18 08:47:15;;;;;;;29.70;13.77;;;;;;;-1.67;100.00;99377.09;6296898;28;20330;-77
2024/01/18 08:50:16;;;;;;;33.60;14.80;;;;;;;-1.67;100.00;99371.94;6297983;28;20360;-77
2024/01/18 08:53:18;;;;;;;27.00;13.27;;;;;;;-1.60;100.00;99373.44;6298395;28;20041;-76
2024/01/18 08:56:19;;;;;;;23.75;12.05;;;;;;;-1.55;100.00;99378.47;6288578;28;20119;-76
2024/01/18 08:59:22;;;;;;;27.42;13.35;;;;;;;-1.49;100.00;99377.50;6293300;28;20051;-76
2024/01/18 09:02:24;;;;;;;25.80;11.05;;;;;;;-1.44;100.00;99381.63;6292724;28;20107;-77
2024/01/18 09:05:25;;;;;;;32.78;12.65;;;;;;;-1.40;100.00;99390.97;6295374;28;20055;-76
2024/01/18 09:08:27;;;;;;;24.20;12.27;;;;;;;-1.35;100.00;99390.84;6292599;28;20048;-76
2024/01/18 09:11:28;;;;;;;26.85;12.35;;;;;;;-1.39;100.00;99399.56;6293173;28;20048;-76
2024/01/18 09:14:31;;;;;;;25.45;12.13;;;;;;;-1.35;100.00;99406.31;6291184;28;20067;-76
2024/01/18 09:17:32;;;;;;;26.55;12.00;;;;;;;-1.43;100.00;99411.66;6289570;28;20045;-75
2024/01/18 09:20:34;;;;;;;25.83;12.65;;;;;;;-1.34;100.00;99410.56;6290412;28;20067;-77
2024/01/18 09:23:36;;;;;;;23.90;10.50;;;;;;;-1.39;100.00;99425.31;6287383;28;20052;-77
2024/01/18 09:26:37;;;;;;;36.08;13.85;;;;;;;-1.30;100.00;99425.91;6287115;28;20071;-76
2024/01/18 09:29:40;;;;;;;22.05;11.50;;;;;;;-1.28;100.00;99442.16;6295222;28;20045;-78
2024/01/18 09:32:41;;;;;;;25.50;11.52;;;;;;;-1.38;100.00;99438.16;6287860;28;20056;-77
2024/01/18 09:35:42;;;;;;;23.85;12.32;;;;;;;-1.44;100.00;99430.59;6291701;28;20052;-77
2024/01/18 09:38:44;;;;;;;33.72;11.50;;;;;;;-1.37;100.00;99444.97;6301695;28;20054;-77
2024/01/18 09:41:49;;;;;;;25.40;11.63;;;;;;;-1.15;100.00;99445.28;6300697;28;20048;-77
2024/01/18 09:44:54;;;;;;;27.15;11.50;;;;;;;-1.18;100.00;99450.53;6301075;28;20076;-77
2024/01/18 09:47:55;;;;;;;27.15;11.82;;;;;;;-1.21;100.00;99457.50;6301178;28;20511;-76
2024/01/18 09:50:58;;;;;;;24.92;11.18;;;;;;;-1.03;100.00;99460.41;6299762;28;20052;-77
2024/01/18 09:54:00;;;;;;;24.92;12.10;;;;;;;-1.02;100.00;99466.41;6300695;28;20044;-75
2024/01/18 09:57:02;;;;;;;26.83;13.35;;;;;;;-0.90;100.00;99470.41;6293445;28;20056;-76
2024/01/18 10:00:13;;;;;;;31.02;12.07;;;;;;;-0.84;100.00;99477.97;6296776;28;21889;-76
2024/01/18 10:03:14;;;;;;;28.35;12.73;;;;;;;-0.77;100.00;99484.66;6300439;28;20052;-77
2024/01/18 10:06:17;;;;;;;24.33;12.05;;;;;;;-0.64;100.00;99475.66;6299879;28;20052;-77
2024/01/18 10:09:19;;;;;;;19.48;10.23;;;;;;;-0.53;100.00;99475.38;6301242;28;20084;-74
2024/01/18 10:12:20;;;;;;;30.25;12.20;;;;;;;-0.59;100.00;99475.53;6300521;28;20074;-75
2024/01/18 10:15:34;;;;;;;22.23;11.05;;;;;;;-0.50;100.00;99467.53;6301122;28;20048;-77
2024/01/18 10:18:36;;;;;;;24.23;12.20;;;;;;;-0.51;100.00;99477.00;6300850;28;20052;-76
2024/01/18 10:21:37;;;;;;;18.63;10.07;;;;;;;-0.40;100.00;99478.47;6300562;28;20048;-77
2024/01/18 10:24:40;;;;;;;26.55;11.15;;;;;;;-0.40;100.00;99493.94;6299939;28;20055;-76
2024/01/18 10:27:42;;;;;;;26.05;9.88;;;;;;;-0.40;100.00;99497.38;6294971;28;20139;-76
2024/01/18 10:30:45;;;;;;;24.15;10.82;;;;;;;-0.33;100.00;99504.03;6299346;28;20509;-76
2024/01/18 10:33:47;;;;;;;19.83;10.15;;;;;;;-0.27;100.00;99518.53;6300215;28;20048;-76
2024/01/18 10:36:48;;;;;;;20.00;10.02;;;;;;;-0.24;100.00;99523.56;6299332;28;20145;-76
2024/01/18 10:39:50;;;;;;;22.80;9.90;;;;;;;-0.13;100.00;99516.38;6299962;28;20048;-75
2024/01/18 10:42:51;;;;;;;22.35;10.05;;;;;;;-0.09;100.00;99517.09;6299853;28;20055;-76
2024/01/18 10:45:54;;;;;;;21.85;9.70;;;;;;;-0.01;100.00;99518.56;6299509;28;20067;-75
2024/01/18 10:48:55;;;;;;;21.25;9.95;;;;;;;0.03;100.00;99516.75;6300326;28;20054;-76
2024/01/18 10:51:57;;;;;;;18.27;9.63;;;;;;;0.17;100.00;99518.91;6299771;28;20044;-75
2024/01/18 10:54:59;;;;;;;17.58;8.18;;;;;;;0.24;100.00;99517.84;6300119;28;20052;-75
2024/01/18 10:58:00;;;;;;;15.27;8.18;;;;;;;0.21;100.00;99517.94;6299520;28;20056;-75
2024/01/18 11:01:04;;;;;;;20.00;10.02;;;;;;;0.29;100.00;99517.69;6300069;28;20044;-75
2024/01/18 11:04:07;;;;;;;15.50;8.38;;;;;;;0.35;100.00;99525.25;6299480;28;20048;-76
2024/01/18 11:07:09;;;;;;;19.38;8.52;;;;;;;0.46;100.00;99530.94;6299532;28;20048;-75
2024/01/18 11:10:12;;;;;;;13.65;7.30;;;;;;;0.54;100.00;99528.09;6299672;28;20075;-74
2024/01/18 11:13:15;;;;;;;17.15;7.30;;;;;;;0.66;100.00;99528.53;6299867;28;20040;-75
2024/01/18 11:16:18;;;;;;;11.68;5.97;;;;;;;0.73;100.00;99536.97;6299635;28;20131;-76
2024/01/18 11:19:39;;;;;;;16.40;6.55;;;;;;;0.86;100.00;99540.81;6299463;28;20574;-76
2024/01/18 11:22:41;;;;;;;17.73;6.57;;;;;;;1.00;100.00;99542.97;6296637;28;20076;-76
2024/01/18 11:25:45;;;;;;;10.60;6.15;;;;;;;1.03;100.00;99542.84;6299394;28;20044;-75
2024/01/18 11:28:46;;;;;;;14.15;6.10;;;;;;;1.07;100.00;99544.44;6299867;28;20057;-75
2024/01/18 11:31:50;;;;;;;10.48;5.20;;;;;;;1.20;100.00;99558.63;6299529;28;20044;-75
2024/01/18 11:35:06;;;;;;;9.15;4.95;;;;;;;1.33;100.00;99558.22;6299518;28;20044;-75
2024/01/18 11:38:28;;;;;;;12.43;5.57;;;;;;;1.40;100.00;99554.50;6298933;28;20193;-75
2024/01/18 11:41:32;;;;;;;18.67;5.15;;;;;;;1.49;100.00;99560.19;6299632;28;20041;-75
2024/01/18 11:44:33;;;;;;;8.52;4.93;;;;;;;1.58;100.00;99565.97;6299115;28;20349;-75
2024/01/18 11:47:37;;;;;;;11.23;4.00;;;;;;;1.60;100.00;99556.41;6299058;28;20469;-75
2024/01/18 11:50:39;;;;;;;8.13;4.05;;;;;;;1.67;100.00;99565.63;6299311;28;20059;-74
2024/01/18 11:53:40;;;;;;;6.97;3.13;;;;;;;1.58;100.00;99578.91;6299782;28;20048;-74
2024/01/18 11:56:43;;;;;;;7.50;3.42;;;;;;;1.62;100.00;99578.75;6293819;28;20070;-74
2024/01/18 11:59:45;;;;;;;9.30;3.95;;;;;;;1.68;100.00;99583.72;6280826;28;20453;-75
2024/01/18 12:02:48;;;;;;;19.67;3.92;;;;;;;1.72;100.00;99585.28;6277738;28;20468;-75
2024/01/18 12:05:50;;;;;;;7.53;3.72;;;;;;;1.77;100.00;99586.00;6292652;28;20057;-75
2024/01/18 12:08:51;;;;;;;5.97;3.25;;;;;;;1.92;100.00;99589.75;6298492;28;20048;-74
2024/01/18 12:11:55;;;;;;;9.57;3.92;;;;;;;2.07;100.00;99585.75;6303477;28;20048;-74
2024/01/18 12:14:56;;;;;;;10.63;3.58;;;;;;;2.16;100.00;99587.16;6303248;28;20503;-74
2024/01/18 12:17:59;;;;;;;4.28;2.67;;;;;;;2.30;100.00;99590.06;6303360;28;20078;-75
2024/01/18 12:21:04;;;;;;;8.50;3.08;;;;;;;2.42;100.00;99589.59;6295146;28;20073;-74
2024/01/18 12:24:05;;;;;;;5.05;2.58;;;;;;;2.59;100.00;99598.47;6278639;28;20041;-74
2024/01/18 12:27:07;;;;;;;5.88;2.33;;;;;;;2.63;100.00;99593.09;6278336;28;20049;-74
2024/01/18 12:30:10;;;;;;;8.55;1.92;;;;;;;2.57;100.00;99595.09;6278355;28;20048;-73
2024/01/18 12:33:14;;;;;;;3.05;1.77;;;;;;;2.77;100.00;99588.22;6287298;28;20398;-73
2024/01/18 12:36:16;;;;;;;3.65;2.00;;;;;;;2.82;100.00;99605.31;6302035;28;20053;-74
2024/01/18 12:39:17;;;;;;;5.95;3.10;;;;;;;2.95;100.00;99602.22;6303192;28;20056;-74
2024/01/18 12:42:18;;;;;;;3.60;1.77;;;;;;;2.79;100.00;99612.34;6302821;28;20048;-73
2024/01/18 12:45:21;;;;;;;5.72;2.25;;;;;;;2.86;100.00;99609.50;6303182;28;20052;-74
2024/01/18 12:48:24;;;;;;;4.18;2.30;;;;;;;2.82;100.00;99610.50;6302809;28;20329;-75
2024/01/18 12:51:26;;;;;;;4.07;1.88;;;;;;;2.78;100.00;99615.84;6302947;28;20080;-75
2024/01/18 12:54:29;;;;;;;16.23;1.63;;;;;;;2.68;100.00;99613.66;6302603;28;20049;-74
2024/01/18 12:57:30;;;;;;;5.93;1.65;;;;;;;2.69;100.00;99625.75;6296124;28;20123;-74
2024/01/18 13:00:32;;;;;;;9.57;1.88;;;;;;;2.82;100.00;99616.56;6289480;28;20040;-75
2024/01/18 13:03:35;;;;;;;2.60;1.35;;;;;;;2.74;100.00;99622.06;6289384;28;20115;-74
2024/01/18 13:06:37;;;;;;;5.70;1.90;;;;;;;2.54;100.00;99634.94;6289653;28;20108;-75
2024/01/18 13:09:38;;;;;;;4.28;1.67;;;;;;;2.53;100.00;99647.06;6286937;28;20044;-74
2024/01/18 13:12:40;;;;;;;2.78;1.52;;;;;;;2.54;100.00;99645.31;6288038;28;20057;-75
2024/01/18 13:15:41;;;;;;;3.22;1.30;;;;;;;2.53;100.00;99649.66;6289872;28;20445;-74
2024/01/18 13:18:44;;;;;;;5.72;1.60;;;;;;;2.47;100.00;99665.47;6297385;28;20044;-74
2024/01/18 13:21:45;;;;;;;4.40;1.45;;;;;;;2.39;100.00;99677.00;6299373;28;20044;-74
2024/01/18 13:24:47;;;;;;;6.10;1.30;;;;;;;2.41;100.00;99676.06;6302124;28;20048;-73
2024/01/18 13:27:48;;;;;;;8.98;1.40;;;;;;;2.31;100.00;99684.22;6301539;28;20049;-73
2024/01/18 13:30:50;;;;;;;2.75;1.38;;;;;;;2.26;100.00;99694.75;6301856;28;20048;-73
2024/01/18 13:33:53;;;;;;;3.03;1.60;;;;;;;2.27;100.00;99692.13;6293245;28;20083;-74
2024/01/18 13:36:56;;;;;;;6.15;2.05;;;;;;;2.29;100.00;99700.69;6289258;28;20048;-75
2024/01/18 13:39:57;;;;;;;9.13;1.80;;;;;;;2.23;100.00;99708.69;6288081;28;20047;-74
2024/01/18 13:42:59;;;;;;;2.95;1.27;;;;;;;2.27;100.00;99712.88;6287015;28;20063;-77
2024/01/18 13:46:02;;;;;;;4.50;1.58;;;;;;;2.21;100.00;99710.47;6293352;28;20444;-75
2024/01/18 13:49:04;;;;;;;2.85;1.33;;;;;;;2.26;100.00;99713.75;6299899;28;20061;-74
2024/01/18 13:52:06;;;;;;;3.20;1.50;;;;;;;2.22;100.00;99722.53;6289760;28;20045;-74
2024/01/18 13:55:08;;;;;;;8.88;1.63;;;;;;;2.24;100.00;99733.72;6301025;28;20048;-75
2024/01/18 13:58:11;;;;;;;3.17;1.13;;;;;;;2.26;100.00;99741.41;6300866;28;20048;-75